createdAt,value
2023-05-02T00:01:13.816Z,62.70
2023-05-02T00:03:43.122Z,62.50
2023-05-02T00:06:12.575Z,62.20
2023-05-02T00:08:41.935Z,62.00
2023-05-02T00:11:11.108Z,61.80
2023-05-02T00:13:40.302Z,61.70
2023-05-02T00:16:09.405Z,62.10
2023-05-02T00:18:38.392Z,61.80
2023-05-02T00:21:07.492Z,61.70
2023-05-02T00:23:36.579Z,61.80
2023-05-02T00:26:05.575Z,61.80
2023-05-02T00:28:34.879Z,61.90
2023-05-02T00:31:03.887Z,61.70
2023-05-02T00:33:32.858Z,61.70
2023-05-02T00:36:02.069Z,61.90
2023-05-02T00:38:31.052Z,61.60
2023-05-02T00:40:59.953Z,61.70
2023-05-02T16:01:22.286Z,61.70
2023-05-02T16:03:51.707Z,60.00
2023-05-02T16:06:21.061Z,60.10
2023-05-02T16:08:50.249Z,59.20
2023-05-02T16:11:19.239Z,59.20
2023-05-02T16:13:48.338Z,59.00
2023-05-02T16:16:17.682Z,59.50
2023-05-02T16:18:47.039Z,59.20
2023-05-02T16:21:16.227Z,59.30
2023-05-02T16:23:45.539Z,59.60
2023-05-02T16:26:14.740Z,59.80
2023-05-02T16:28:43.731Z,60.00
2023-05-02T16:31:12.964Z,60.60
2023-05-02T16:33:42.233Z,60.00
2023-05-02T16:36:11.327Z,60.00
2023-05-02T16:38:40.526Z,60.10
2023-05-02T16:41:09.630Z,60.40
2023-05-02T16:43:38.928Z,60.10
2023-05-02T16:46:08.222Z,60.10
2023-05-02T16:48:37.426Z,60.40
2023-05-02T16:51:06.986Z,60.60
2023-05-02T16:53:36.329Z,61.10
2023-05-02T16:56:05.849Z,61.20
2023-05-02T16:58:35.245Z,61.20
2023-05-02T17:01:04.369Z,61.30
2023-05-02T17:03:33.571Z,60.70
2023-05-02T17:06:03.011Z,60.50
2023-05-02T17:08:32.513Z,60.80
2023-05-02T17:11:01.662Z,61.70
2023-05-02T17:13:30.838Z,61.60
2023-05-02T17:16:00.037Z,61.40
2023-05-02T17:18:29.443Z,61.40
2023-05-02T17:20:58.532Z,61.60
2023-05-02T17:23:27.628Z,61.80
2023-05-02T17:25:56.624Z,61.90
2023-05-02T17:28:26.127Z,62.20
2023-05-02T17:30:55.463Z,62.20
2023-05-02T17:33:24.728Z,61.90
2023-05-02T17:35:53.902Z,61.90
2023-05-02T17:38:23.030Z,62.50
2023-05-02T17:40:52.108Z,62.60
2023-05-02T17:43:21.424Z,62.70
2023-05-02T17:45:50.437Z,62.40
2023-05-02T17:48:19.885Z,62.60
2023-05-02T17:50:49.011Z,62.50
2023-05-02T17:53:18.125Z,62.90
2023-05-02T17:55:47.414Z,62.60
2023-05-02T17:58:16.608Z,62.60
2023-05-02T18:00:45.909Z,62.60
2023-05-02T18:03:15.215Z,62.40
2023-05-02T18:05:44.520Z,62.70
2023-05-02T18:08:13.749Z,62.80
2023-05-02T18:10:43.124Z,62.80
2023-05-02T18:13:12.416Z,62.80
2023-05-02T18:15:41.750Z,62.70
2023-05-02T18:18:10.873Z,62.70
2023-05-02T18:20:40.118Z,62.60
2023-05-02T18:23:09.321Z,62.60
2023-05-02T18:25:38.194Z,62.60
2023-05-02T18:28:07.303Z,62.70
2023-05-02T18:30:36.604Z,62.90
2023-05-02T18:33:06.241Z,62.90
2023-05-02T18:35:35.599Z,62.90
2023-05-02T18:38:04.699Z,62.70
2023-05-02T18:40:34.010Z,62.70
2023-05-02T18:43:03.210Z,62.90
2023-05-02T18:45:32.289Z,63.20
2023-05-02T18:48:01.618Z,62.70
2023-05-02T18:50:30.895Z,62.70
2023-05-02T18:52:59.990Z,62.70
2023-05-02T18:55:29.197Z,62.90
2023-05-02T18:57:58.489Z,63.10
2023-05-02T19:00:27.664Z,63.30
2023-05-02T19:02:56.852Z,63.00
2023-05-02T19:05:27.533Z,63.10
2023-05-02T19:07:56.815Z,63.80
2023-05-02T19:10:26.128Z,63.40
2023-05-02T19:12:55.533Z,63.30
2023-05-02T19:15:24.716Z,63.60
2023-05-02T19:17:53.742Z,63.70
2023-05-02T19:20:23.018Z,63.30
2023-05-02T19:22:55.799Z,63.20
2023-05-02T19:25:22.840Z,63.10
2023-05-02T19:27:52.079Z,63.00
2023-05-02T19:30:21.240Z,62.90
2023-05-02T19:32:50.496Z,63.00
2023-05-02T19:35:19.642Z,63.00
2023-05-02T19:37:49.261Z,62.90
2023-05-02T19:40:18.546Z,62.90
2023-05-02T19:42:47.740Z,62.90
2023-05-02T19:45:17.150Z,63.00
2023-05-02T19:47:46.487Z,63.00
2023-05-02T19:50:15.645Z,62.80
2023-05-02T19:52:44.754Z,62.70
2023-05-02T19:55:14.047Z,62.80
2023-05-02T19:57:43.350Z,62.70
2023-05-02T20:00:12.437Z,62.70
2023-05-02T20:02:40.824Z,62.70
2023-05-02T20:05:10.335Z,62.70
2023-05-02T20:07:39.621Z,62.60
2023-05-02T20:10:09.370Z,63.20
2023-05-02T20:12:38.841Z,62.60
2023-05-02T20:15:08.034Z,62.70
2023-05-02T20:17:37.415Z,62.60
2023-05-02T20:20:06.836Z,63.00
2023-05-02T20:22:36.049Z,62.90
2023-05-02T20:25:05.247Z,63.00
2023-05-02T20:27:34.547Z,63.10
2023-05-02T20:30:04.051Z,63.30
2023-05-02T20:32:33.654Z,63.60
2023-05-02T20:35:03.057Z,64.00
2023-05-02T20:37:32.458Z,64.00
2023-05-02T20:40:02.063Z,63.70
2023-05-02T20:42:31.772Z,63.70
2023-05-02T20:45:01.076Z,63.60
2023-05-02T20:47:30.467Z,64.00
2023-05-02T20:50:00.073Z,64.70
2023-05-02T20:52:29.495Z,64.50
2023-05-02T20:54:58.888Z,64.50
2023-05-02T20:57:28.088Z,64.10
2023-05-02T20:59:57.417Z,64.00
2023-05-02T21:02:26.782Z,64.20
2023-05-02T21:04:55.892Z,64.10
2023-05-02T21:07:24.895Z,64.10
2023-05-02T21:09:55.310Z,64.10
2023-05-02T21:12:24.304Z,64.00
2023-05-02T21:14:53.719Z,64.00
2023-05-02T21:17:22.915Z,64.00
2023-05-02T21:19:52.000Z,64.00
2023-05-02T21:22:20.890Z,64.00
2023-05-02T21:24:49.989Z,64.00
2023-05-02T21:27:19.822Z,63.80
2023-05-02T21:29:48.896Z,63.90
2023-05-02T21:32:17.976Z,64.10
2023-05-02T21:34:46.888Z,63.80
2023-05-02T21:37:15.738Z,62.60
2023-05-02T21:39:45.079Z,61.50
2023-05-02T21:42:13.974Z,60.60
2023-05-02T21:44:43.166Z,59.90
2023-05-02T21:47:12.655Z,59.50
2023-05-02T21:49:41.762Z,59.50
2023-05-02T21:52:10.837Z,59.40
2023-05-02T21:54:39.959Z,59.20
2023-05-02T21:57:09.156Z,59.40
2023-05-02T21:59:38.244Z,59.50
